Latest Weather Observations for Karratha

IDW60801

Issued at 10:03 am WST Wednesday 24 May 2017 (issued every 30 minutes, with the page automatically refreshed every 10 minutes)

About weather observations | Map of weather stations | Latest weather observations for WA | Other Formats
Station Details ID: 004083 Name: KARRATHA AERO Lat: -20.71 Lon: 116.77 Height: 5.3 m
Data from the previous 72 hours. | See also: Recent months at Karratha
Date/Time
WST
Temp
°C
App
Temp
°C
Dew
Point
°C
Rel
Hum
%
Delta-T
°C
Wind Press
QNH
hPa
Press
MSL
hPa
Rain since
9am
mm
Dir  Spd
km/h
Gust
km/h
Spd
kts
Gust
kts
24/10:00am 27.6 23.6 10.3 34 9.7 ENE 22 28 12 15 1016.7 1016.7 0.0
24/09:30am 27.0 23.8 11.1 37 9.0 ENE 19 24 10 13 1016.6 1016.6 0.0
24/09:00am 25.9 22.5 10.5 38 8.6 E 19 22 10 12 1016.6 1016.6 0.0
24/08:30am 24.5 23.4 11.8 45 7.2 E 9 13 5 7 1016.4 1016.4 0.0
24/08:00am 22.9 23.5 13.1 54 5.6 ENE 2 6 1 3 1016.1 1016.1 0.0
24/07:30am 20.3 21.5 13.7 66 3.8 CALM 0 0 0 0 1015.7 1015.7 0.0
24/07:00am 18.9 19.9 13.3 70 3.2 CALM 0 0 0 0 1015.5 1015.5 0.0
24/06:30am 18.8 19.8 13.2 70 3.2 CALM 0 0 0 0 1015.3 1015.3 0.0
24/06:00am 18.8 19.7 13.0 69 3.3 CALM 0 0 0 0 1014.9 1014.9 0.0
24/05:30am 18.7 19.6 12.9 69 3.3 CALM 0 0 0 0 1014.8 1014.8 0.0
24/05:00am 18.8 18.6 13.0 69 3.3 SSE 6 7 3 4 1014.6 1014.6 0.0
24/04:30am 18.5 18.1 12.9 70 3.1 SSE 7 9 4 5 1014.5 1014.5 0.0
24/04:00am 18.4 17.5 12.6 69 3.2 SSE 9 11 5 6 1014.5 1014.5 0.0
24/03:30am 18.6 17.3 12.6 68 3.4 SSE 11 11 6 6 1014.5 1014.5 0.0
24/03:00am 18.8 17.6 12.8 68 3.4 S 11 13 6 7 1014.6 1014.6 0.0
24/02:30am 18.8 17.7 13.0 69 3.3 S 11 13 6 7 1014.8 1014.8 0.0
24/02:00am 18.9 17.5 13.3 70 3.2 S 13 15 7 8 1014.9 1014.9 0.0
24/01:30am 18.9 18.0 13.7 72 3.0 SSE 11 13 6 7 1015.2 1015.2 0.0
24/01:00am 19.3 18.1 14.1 72 3.0 S 13 13 7 7 1015.3 1015.3 0.0
24/12:30am 19.2 18.8 15.1 77 2.4 S 11 15 6 8 1015.4 1015.4 0.0
24/12:00am 19.1 18.2 15.8 81 2.0 S 15 15 8 8 1015.5 1015.5 0.0
 
Date/Time
WST
Temp
°C
App
Temp
°C
Dew
Point
°C
Rel
Hum
%
Delta-T
°C
Wind Press
QNH
hPa
Press
MSL
hPa
Rain since
9am
mm
Dir  Spd
km/h
Gust
km/h
Spd
kts
Gust
kts
23/11:30pm 19.4 18.4 15.7 79 2.2 S 15 17 8 9 1015.7 1015.7 0.0
23/11:00pm 19.6 20.2 15.9 79 2.2 SSE 7 9 4 5 1015.9 1015.9 0.0
23/10:30pm 19.7 20.6 16.0 79 2.2 SSE 6 7 3 4 1015.8 1015.8 0.0
23/10:00pm 20.4 21.7 17.2 82 2.0 SSE 6 7 3 4 1015.7 1015.7 0.0
23/09:30pm 20.9 23.0 18.1 84 1.7 E 4 7 2 4 1015.6 1015.6 0.0
23/09:00pm 21.3 24.2 18.1 82 2.0 CALM 0 0 0 0 1015.5 1015.5 0.0
23/08:30pm 22.3 24.1 18.7 80 2.3 ENE 7 7 4 4 1015.3 1015.3 0.0
23/08:00pm 22.2 23.4 18.2 78 2.5 ENE 9 9 5 5 1015.0 1015.0 0.0
23/07:30pm 22.7 24.0 18.5 77 2.6 ENE 9 11 5 6 1014.7 1014.7 0.0
23/07:00pm 23.1 24.4 18.4 75 3.0 NE 9 11 5 6 1014.3 1014.3 0.0
23/06:30pm 23.9 24.4 18.3 71 3.5 NE 13 15 7 8 1014.2 1014.2 0.0
23/06:00pm 24.7 24.4 17.4 64 4.5 NE 15 19 8 10 1013.7 1013.7 0.0
23/05:30pm 25.6 25.2 18.0 63 4.8 NNE 17 20 9 11 1013.3 1013.3 0.0
23/05:00pm 26.8 24.6 14.9 48 7.2 NNE 20 24 11 13 1013.0 1013.0 0.0
23/04:30pm 27.5 24.9 13.8 43 8.1 NNE 20 26 11 14 1012.9 1012.9 0.0
23/04:00pm 28.0 24.3 12.8 39 8.9 NNE 24 32 13 17 1012.9 1012.9 0.0
23/03:30pm 28.7 24.7 11.7 35 9.8 NE 24 32 13 17 1013.0 1013.0 0.0
23/03:00pm 28.5 24.4 12.8 38 9.2 NE 26 32 14 17 1013.1 1013.1 0.0
23/02:30pm 28.6 25.1 13.3 39 9.1 NE 24 32 13 17 1013.3 1013.3 0.0
23/02:00pm 28.6 24.6 12.9 38 9.2 NE 26 32 14 17 1013.5 1013.5 0.0
23/01:30pm 28.9 25.1 13.6 39 9.1 NE 26 32 14 17 1013.8 1013.8 0.0
23/01:00pm 28.6 24.8 13.7 40 8.9 NE 26 32 14 17 1014.2 1014.2 0.0
23/12:30pm 28.3 25.1 13.0 39 9.0 NE 22 30 12 16 1014.7 1014.7 0.0
23/12:00pm 28.4 24.9 12.3 37 9.4 NE 22 30 12 16 1015.2 1015.2 0.0
23/11:30am 28.3 25.1 11.8 36 9.5 NE 20 26 11 14 1015.7 1015.7 0.0
23/11:00am 28.8 24.8 10.5 32 10.4 ENE 22 28 12 15 1016.0 1016.0 0.0
23/10:30am 28.5 23.8 9.2 30 10.7 ENE 24 30 13 16 1016.4 1016.4 0.0
23/10:00am 28.0 23.2 8.8 30 10.5 E 24 30 13 16 1016.8 1016.8 0.0
23/09:30am 26.6 22.7 9.5 34 9.4 E 20 26 11 14 1017.1 1017.1 0.0
23/09:00am 25.5 21.6 8.5 34 9.1 E 19 28 10 15 1017.1 1017.1 0.0
23/08:30am 23.6 22.3 9.2 40 7.8 ESE 6 9 3 5 1016.9 1016.9 0.0
23/08:00am 20.8 19.6 9.4 48 6.1 SSE 6 7 3 4 1016.5 1016.5 0.0
23/07:30am 17.7 17.2 9.3 58 4.4 S 2 7 1 4 1016.3 1016.3 0.0
23/07:00am 15.2 14.5 8.4 64 3.4 SSE 2 7 1 4 1016.1 1016.1 0.0
23/06:30am 14.8 13.7 8.3 65 3.3 SSE 4 7 2 4 1015.7 1015.7 0.0
23/06:00am 15.8 15.6 9.0 64 3.5 CALM 0 0 0 0 1015.4 1015.4 0.0
23/05:30am 16.1 15.9 9.1 63 3.6 CALM 0 0 0 0 1015.1 1015.1 0.0
23/05:00am 16.7 15.7 8.7 59 4.1 ESE 4 11 2 6 1014.8 1014.8 0.0
23/04:30am 17.4 15.5 9.1 58 4.3 ENE 9 11 5 6 1014.7 1014.7 0.0
23/04:00am 17.1 15.5 8.8 58 4.3 E 7 11 4 6 1014.6 1014.6 0.0
23/03:30am 17.4 14.4 9.1 58 4.3 SSE 15 17 8 9 1014.3 1014.3 0.0
23/03:00am 17.6 15.0 9.5 59 4.2 S 13 17 7 9 1014.3 1014.3 0.0
23/02:30am 17.9 14.9 10.8 63 3.8 SSE 17 19 9 10 1014.4 1014.4 0.0
23/02:00am 17.8 16.3 11.8 68 3.3 S 11 15 6 8 1014.8 1014.8 0.0
23/01:30am 17.4 17.2 12.9 75 2.5 SW 6 9 3 5 1014.8 1014.8 0.0
23/01:00am 17.0 15.8 12.7 76 2.4 SSW 11 15 6 8 1015.0 1015.0 0.0
23/12:30am 18.2 16.6 13.9 76 2.5 SW 15 19 8 10 1015.2 1015.2 0.0
23/12:00am 18.2 17.4 14.1 77 2.3 SW 11 11 6 6 1015.5 1015.5 0.0
 
Date/Time
WST
Temp
°C
App
Temp
°C
Dew
Point
°C
Rel
Hum
%
Delta-T
°C
Wind Press
QNH
hPa
Press
MSL
hPa
Rain since
9am
mm
Dir  Spd
km/h
Gust
km/h
Spd
kts
Gust
kts
22/11:30pm 19.5 19.5 15.2 76 2.5 SW 9 11 5 6 1015.8 1015.8 0.0
22/11:14pm 19.0 19.9 15.1 78 2.3 SW 4 11 2 6 1015.7 1015.7 0.0
22/11:00pm 18.5 18.4 14.0 75 2.6 WSW 7 13 4 7 1015.8 1015.8 0.0
22/10:50pm 18.7 18.7 14.2 75 2.6 SSW 7 13 4 7 1015.8 1015.8 0.0
22/10:44pm 18.9 19.0 14.4 75 2.6 SW 7 11 4 6 1015.9 1015.9 0.0
22/10:30pm 19.5 19.4 15.0 75 2.6 SW 9 13 5 7 1015.8 1015.8 0.0
22/10:00pm 20.1 19.7 15.3 74 2.8 SW 11 13 6 7 1015.7 1015.7 0.0
22/09:45pm 20.9 20.2 15.4 71 3.3 WSW 13 15 7 8 1015.7 1015.7 0.0
22/09:43pm 21.1 20.6 15.9 72 3.1 WSW 13 15 7 8 1015.7 1015.7 0.0
22/09:30pm 21.2 21.5 16.0 72 3.1 WSW 9 13 5 7 1015.7 1015.7 0.0
22/09:22pm 21.8 21.7 16.1 70 3.4 WSW 11 13 6 7 1015.7 1015.7 0.0
22/09:00pm 22.9 22.3 16.7 68 3.8 W 15 17 8 9 1015.6 1015.6 0.0
22/08:30pm 23.6 23.3 16.4 64 4.4 W 13 15 7 8 1015.3 1015.3 0.0
22/08:00pm 23.8 23.1 15.3 59 5.1 W 13 17 7 9 1015.1 1015.1 0.0
22/07:30pm 24.1 23.2 14.8 56 5.5 W 13 17 7 9 1014.8 1014.8 0.0
22/07:00pm 24.5 22.8 13.7 51 6.3 W 15 17 8 9 1014.5 1014.5 0.0
22/06:30pm 24.5 23.4 12.1 46 7.1 WNW 9 13 5 7 1014.3 1014.3 0.0
22/06:00pm 24.9 23.4 11.8 44 7.4 WNW 11 15 6 8 1014.0 1014.0 0.0
22/05:30pm 25.7 23.3 11.5 41 8.1 WNW 15 17 8 9 1013.8 1013.8 0.0
22/05:00pm 26.7 24.3 10.0 35 9.3 NNW 13 19 7 10 1013.5 1013.5 0.0
22/04:30pm 27.0 24.3 8.9 32 9.9 NNE 13 17 7 9 1013.3 1013.3 0.0
22/04:00pm 27.3 24.0 8.2 30 10.3 NNE 15 19 8 10 1013.1 1013.1 0.0
22/03:30pm 27.8 23.6 7.6 28 10.8 NE 19 22 10 12 1013.0 1013.0 0.0
22/03:00pm 27.9 24.1 9.2 31 10.3 NNE 19 22 10 12 1013.0 1013.0 0.0
22/02:30pm 27.4 23.5 9.3 32 10.0 NNE 20 24 11 13 1013.1 1013.1 0.0
22/02:00pm 28.1 24.3 9.9 32 10.2 NE 20 26 11 14 1013.1 1013.1 0.0
22/01:30pm 29.5 26.5 6.2 23 12.3 NNW 11 19 6 10 1013.4 1013.4 0.0
22/01:00pm 29.0 26.1 6.4 24 12.0 N 11 19 6 10 1013.8 1013.8 0.0
22/12:30pm 28.5 25.1 4.1 21 12.4 SE 11 24 6 13 1014.4 1014.4 0.0
22/12:00pm 28.6 25.5 5.5 23 12.0 SE 11 20 6 11 1014.9 1014.9 0.0
22/11:30am 27.6 24.3 6.4 26 11.1 ESE 13 20 7 11 1015.4 1015.4 0.0
22/11:00am 27.2 23.1 6.0 26 11.0 SSE 17 24 9 13 1015.9 1015.9 0.0
22/10:30am 26.6 22.4 5.5 26 10.8 SE 17 22 9 12 1016.2 1016.2 0.0
22/10:00am 26.7 22.2 6.2 27 10.7 SSE 19 24 10 13 1016.3 1016.3 0.0
22/09:30am 25.1 19.9 7.3 32 9.4 S 24 28 13 15 1016.5 1016.5 0.0
22/09:00am 24.1 19.3 7.3 34 8.8 S 22 30 12 16 1016.5 1016.5 0.0
22/08:30am 22.9 18.1 7.4 37 8.1 S 22 30 12 16 1016.2 1016.2 0.0
22/08:00am 21.7 17.3 7.5 40 7.3 S 20 26 11 14 1015.8 1015.8 0.0
22/07:30am 18.7 15.7 7.8 49 5.6 SSW 13 15 7 8 1015.4 1015.4 0.0
22/07:00am 15.9 13.2 7.4 57 4.2 SSW 11 13 6 7 1015.2 1015.2 0.0
22/06:30am 15.0 12.2 7.1 59 3.9 SSW 11 13 6 7 1014.8 1014.8 0.0
22/06:00am 16.6 13.9 7.5 55 4.6 SW 11 11 6 6 1014.5 1014.5 0.0
22/05:30am 16.5 14.2 7.4 55 4.5 WSW 9 11 5 6 1014.2 1014.2 0.0
22/05:00am 17.1 13.7 7.5 53 4.8 SSW 15 17 8 9 1013.8 1013.8 0.0
22/04:30am 17.0 13.9 7.4 53 4.8 SSW 13 17 7 9 1013.6 1013.6 0.0
22/04:00am 18.3 15.2 7.4 49 5.5 SSW 13 15 7 8 1013.3 1013.3 0.0
22/03:30am 19.3 15.5 7.4 46 6.1 SSW 17 19 9 10 1013.1 1013.1 0.0
22/03:00am 19.8 15.6 7.5 45 6.3 SSW 19 20 10 11 1013.0 1013.0 0.0
22/02:30am 19.4 16.5 8.1 48 5.8 SSW 13 15 7 8 1012.9 1012.9 0.0
22/02:00am 20.1 17.2 8.1 46 6.2 SSW 13 15 7 8 1012.9 1012.9 0.0
22/01:30am 20.6 17.7 8.3 45 6.4 SSW 13 17 7 9 1012.8 1012.8 0.0
22/01:00am 19.8 17.4 8.8 49 5.8 SSW 11 13 6 7 1012.7 1012.7 0.0
22/12:30am 20.4 17.9 9.6 50 5.8 SSW 13 15 7 8 1012.7 1012.7 0.0
22/12:00am 20.8 18.3 10.9 53 5.4 SW 15 17 8 9 1012.8 1012.8 0.0
 
Date/Time
WST
Temp
°C
App
Temp
°C
Dew
Point
°C
Rel
Hum
%
Delta-T
°C
Wind Press
QNH
hPa
Press
MSL
hPa
Rain since
9am
mm
Dir  Spd
km/h
Gust
km/h
Spd
kts
Gust
kts
21/11:30pm 20.8 18.7 12.5 59 4.7 SW 15 17 8 9 1012.8 1012.8 0.0
21/11:00pm 21.6 18.9 13.0 58 4.9 SW 19 20 10 11 1012.8 1012.8 0.0
21/10:30pm 22.5 19.5 12.4 52 5.7 SW 20 24 11 13 1012.6 1012.6 0.0
21/10:00pm 22.8 19.8 12.7 53 5.8 SW 20 26 11 14 1012.5 1012.5 0.0
21/09:30pm 23.2 21.8 14.5 58 5.1 WSW 15 19 8 10 1012.5 1012.5 0.0
21/09:00pm 24.0 21.8 14.4 55 5.7 WSW 19 22 10 12 1012.5 1012.5 0.0
21/08:30pm 24.4 22.2 14.8 55 5.7 WSW 20 28 11 15 1012.4 1012.4 0.0
21/08:00pm 24.8 21.9 15.1 54 5.8 WSW 24 30 13 16 1012.0 1012.0 0.0
21/07:30pm 25.1 22.9 16.0 57 5.5 WSW 22 28 12 15 1011.7 1011.7 0.0
21/07:00pm 25.4 23.0 16.5 58 5.5 WSW 24 32 13 17 1011.3 1011.3 0.0
21/06:30pm 25.8 22.8 16.9 58 5.5 W 28 35 15 19 1010.8 1010.8 0.0
21/06:00pm 26.1 22.9 17.2 58 5.6 W 30 35 16 19 1010.5 1010.5 0.0
21/05:30pm 26.7 23.3 17.8 58 5.6 W 32 39 17 21 1010.1 1010.1 0.0
21/05:00pm 27.8 23.9 15.5 47 7.5 W 30 41 16 22 1009.7 1009.7 0.0
21/04:30pm 28.2 24.5 16.1 47 7.5 W 30 35 16 19 1009.6 1009.6 0.0
21/04:00pm 29.0 25.3 15.9 45 8.1 W 30 37 16 20 1009.5 1009.5 0.0
21/03:30pm 30.2 26.3 14.3 38 9.6 W 28 33 15 18 1009.3 1009.3 0.0
21/03:00pm 29.9 25.2 11.9 33 10.5 W 28 32 15 17 1009.0 1009.0 0.0
21/02:30pm 30.1 26.5 13.0 35 10.1 W 24 30 13 16 1008.9 1008.9 0.0
21/02:00pm 31.0 27.4 9.8 27 12.0 WNW 19 22 10 12 1009.1 1009.1 0.0
21/01:30pm 30.8 27.1 9.6 27 11.9 WNW 19 24 10 13 1009.2 1009.2 0.0
21/01:00pm 30.7 27.0 10.1 28 11.7 W 20 26 11 14 1009.5 1009.5 0.0
21/12:30pm 31.2 29.4 9.4 26 12.3 SSW 9 19 5 10 1010.3 1010.3 0.0
21/12:00pm 29.8 27.8 8.8 27 11.6 S 9 19 5 10 1010.6 1010.6 0.0
21/11:30am 30.1 27.8 9.1 27 11.7 SSE 11 20 6 11 1011.0 1011.0 0.0
21/11:00am 29.3 26.6 8.9 28 11.3 S 13 22 7 12 1011.4 1011.4 0.0
21/10:30am 28.9 25.5 9.1 29 11.0 SSE 17 26 9 14 1011.8 1011.8 0.0

Other Formats:

Comma delimited format used in spreadsheet applications
http://www.bom.gov.au/fwo/IDW60801/IDW60801.95307.axf

JavaScript Object Notation format (JSON) in row-major order
http://www.bom.gov.au/fwo/IDW60801/IDW60801.95307.json